« Back
NWS Peachtree City, Ga » Text Product » ATL Terminal Aerodrome Forecast


Printer-friendly Version
Current Version              Previous Versions:   1  2  3  4  5  6  7  8  9  

Terminal Aerodrome Forecast

041
FTUS42 KFFC 280932 AAB
TAFATL
TAF AMD
KATL 280932Z 2810/0112 04008KT P6SM BKN110
     FM281500 08012G18KT P6SM SCT035 BKN090
     FM010300 08009KT P6SM SCT015 BKN035
     FM010600 08009KT P6SM -RA BKN015=



USA.gov is the U.S. government's official web portal to all federal, state and local government web resources and services.